createdAt,value
2019-01-21T00:00:40.670Z,4.25
2019-01-21T00:03:14.450Z,5.25
2019-01-21T00:05:40.464Z,4.87
2019-01-21T00:08:09.600Z,4.75
2019-01-21T00:10:39.609Z,4.05
2019-01-21T00:13:08.811Z,3.05
2019-01-21T00:15:38.226Z,5.00
2019-01-21T00:18:07.253Z,6.20
2019-01-21T00:20:36.505Z,7.10
2019-01-21T00:23:06.066Z,6.42
2019-01-21T00:25:35.325Z,6.85
2019-01-21T00:28:04.579Z,6.50
2019-01-21T00:30:33.801Z,5.90
2019-01-21T00:33:03.262Z,5.62
2019-01-21T00:35:34.221Z,5.45
2019-01-21T00:38:03.516Z,5.95
2019-01-21T00:40:32.894Z,5.40
2019-01-21T00:43:02.143Z,5.03
2019-01-21T00:45:31.595Z,4.67
2019-01-21T00:48:00.997Z,7.70
2019-01-21T00:50:30.295Z,6.50
2019-01-21T00:53:00.484Z,8.83
2019-01-21T00:55:29.595Z,7.42
2019-01-21T00:57:59.095Z,6.87
2019-01-21T01:00:28.593Z,8.08
2019-01-21T01:02:57.915Z,7.15
2019-01-21T01:05:27.142Z,6.70
2019-01-21T01:07:56.598Z,7.92
2019-01-21T01:10:25.784Z,6.37
2019-01-21T01:12:55.390Z,7.70
2019-01-21T01:15:24.689Z,6.90
2019-01-21T01:17:54.818Z,11.73
2019-01-21T01:20:23.879Z,12.88
2019-01-21T01:22:53.544Z,13.88
2019-01-21T01:25:22.449Z,13.70
2019-01-21T01:27:51.331Z,14.68
2019-01-21T01:30:20.730Z,20.70
2019-01-21T01:32:49.612Z,19.10
2019-01-21T01:35:19.056Z,15.98
2019-01-21T01:37:48.464Z,13.85
2019-01-21T01:40:20.279Z,15.93
2019-01-21T01:42:49.389Z,20.32
2019-01-21T01:45:21.035Z,26.90
2019-01-21T01:47:53.258Z,25.82
2019-01-21T01:50:22.436Z,31.02
2019-01-21T01:53:00.072Z,30.17
2019-01-21T01:55:29.559Z,22.67
2019-01-21T01:57:59.429Z,24.30
2019-01-21T02:00:28.893Z,21.17
2019-01-21T02:02:58.363Z,20.92
2019-01-21T02:05:27.704Z,21.48
2019-01-21T02:07:57.037Z,22.27
2019-01-21T02:10:25.842Z,20.48
2019-01-21T02:12:54.571Z,21.27
2019-01-21T02:15:23.341Z,20.00
2019-01-21T02:17:53.599Z,19.05
2019-01-21T02:20:22.817Z,18.25
2019-01-21T02:22:54.272Z,16.52
2019-01-21T02:25:26.019Z,16.15
2019-01-21T02:28:19.674Z,15.70
2019-01-21T02:31:10.142Z,15.98
2019-01-21T02:34:10.906Z,18.20
2019-01-21T02:37:14.285Z,16.40
2019-01-21T02:40:01.455Z,17.45
2019-01-21T02:42:39.565Z,15.00
2019-01-21T02:45:17.465Z,16.20
2019-01-21T02:47:49.686Z,18.00
2019-01-21T02:50:41.738Z,21.23
2019-01-21T02:53:23.024Z,17.80
2019-01-21T02:56:00.794Z,20.82
2019-01-21T02:58:35.337Z,22.55
2019-01-21T03:01:07.191Z,22.27
2019-01-21T03:03:53.804Z,18.65
2019-01-21T03:06:34.981Z,19.48
2019-01-21T03:09:14.601Z,18.85
2019-01-21T03:11:49.430Z,22.55
2019-01-21T03:14:33.719Z,20.72
2019-01-21T03:17:31.344Z,25.00
2019-01-21T03:20:21.846Z,26.65
2019-01-21T03:22:54.694Z,27.13
2019-01-21T03:25:35.602Z,28.07
2019-01-21T03:28:35.411Z,37.00
2019-01-21T03:31:19.892Z,41.08
2019-01-21T03:34:12.637Z,45.40
2019-01-21T03:36:56.297Z,42.73
2019-01-21T03:39:55.144Z,38.63
2019-01-21T03:42:27.033Z,23.92
2019-01-21T03:45:18.486Z,26.23
2019-01-21T03:47:47.527Z,25.65
2019-01-21T03:50:46.813Z,31.25
2019-01-21T03:53:21.723Z,28.25
2019-01-21T03:55:53.947Z,26.10
2019-01-21T03:58:55.874Z,25.52
2019-01-21T04:01:39.510Z,25.20
2019-01-21T04:04:32.979Z,26.33
2019-01-21T04:07:04.947Z,25.02
2019-01-21T04:09:49.516Z,25.50
2019-01-21T04:12:27.216Z,24.00
2019-01-21T04:15:15.968Z,26.82
2019-01-21T04:18:08.148Z,22.02
2019-01-21T04:20:45.605Z,21.35
2019-01-21T04:23:26.366Z,21.30
2019-01-21T04:26:10.237Z,25.35
2019-01-21T04:28:55.425Z,26.12
2019-01-21T04:31:39.278Z,30.70
2019-01-21T04:34:26.260Z,30.50
2019-01-21T04:37:07.077Z,29.15
2019-01-21T04:39:47.967Z,28.30
2019-01-21T04:42:32.201Z,25.57
2019-01-21T04:45:23.216Z,27.93
2019-01-21T04:47:55.107Z,27.30
2019-01-21T04:50:49.401Z,26.25
2019-01-21T04:53:39.504Z,27.52
2019-01-21T04:56:15.004Z,26.90
2019-01-21T04:59:11.646Z,27.98
2019-01-21T05:01:44.004Z,28.02
2019-01-21T05:04:24.750Z,28.73
2019-01-21T05:07:08.415Z,29.70
2019-01-21T05:09:46.062Z,29.48
2019-01-21T05:12:26.998Z,26.73
2019-01-21T05:15:07.882Z,30.85
2019-01-21T05:18:07.915Z,34.67
2019-01-21T05:20:39.835Z,29.02
2019-01-21T05:23:39.545Z,31.55
2019-01-21T05:26:26.281Z,34.73
2019-01-21T05:28:58.706Z,26.62
2019-01-21T05:31:33.867Z,25.32
2019-01-21T05:34:22.315Z,33.30
2019-01-21T05:37:09.331Z,32.93
2019-01-21T05:40:01.090Z,31.57
2019-01-21T05:42:53.091Z,32.63
2019-01-21T05:45:37.082Z,31.95
2019-01-21T05:48:09.391Z,35.35
2019-01-21T05:50:49.776Z,29.98
2019-01-21T05:53:39.972Z,30.02
2019-01-21T05:56:14.458Z,27.62
2019-01-21T05:58:55.220Z,36.35
2019-01-21T06:01:41.760Z,34.53
2019-01-21T06:04:16.677Z,28.38
2019-01-21T06:07:06.449Z,35.10
2019-01-21T06:09:41.504Z,36.08
2019-01-21T06:12:16.544Z,38.17
2019-01-21T06:15:04.208Z,31.12
2019-01-21T06:17:42.130Z,33.48
2019-01-21T06:20:26.366Z,37.98
2019-01-21T06:23:29.025Z,37.98
2019-01-21T06:26:13.133Z,35.10
2019-01-21T06:28:52.398Z,38.15
2019-01-21T06:31:40.214Z,41.33
2019-01-21T06:34:21.755Z,39.80
2019-01-21T06:36:59.355Z,39.73
2019-01-21T06:39:34.040Z,39.65
2019-01-21T06:42:08.875Z,39.75
2019-01-21T06:44:56.745Z,40.15
2019-01-21T06:47:59.419Z,34.13
2019-01-21T06:50:31.598Z,41.35
2019-01-21T06:53:18.553Z,40.20
2019-01-21T06:55:57.018Z,42.88
2019-01-21T06:58:44.055Z,44.73
2019-01-21T07:01:19.493Z,45.90
2019-01-21T07:04:06.653Z,44.15
2019-01-21T07:06:58.931Z,44.42
2019-01-21T07:09:31.224Z,37.42
2019-01-21T07:12:12.788Z,41.37
2019-01-21T07:15:05.915Z,42.78
2019-01-21T07:18:02.195Z,41.00
2019-01-21T07:20:42.898Z,41.00
2019-01-21T07:23:34.792Z,39.25
2019-01-21T07:26:24.896Z,37.30
2019-01-21T07:28:57.059Z,36.55
2019-01-21T07:31:31.846Z,40.23
2019-01-21T07:34:25.049Z,38.38
2019-01-21T07:37:00.062Z,39.75
2019-01-21T07:40:03.033Z,40.05
2019-01-21T07:42:47.190Z,43.25
2019-01-21T07:45:41.319Z,38.67
2019-01-21T07:48:23.489Z,36.40
2019-01-21T07:51:07.409Z,40.75
2019-01-21T07:53:47.153Z,34.63
2019-01-21T07:56:38.864Z,33.10
2019-01-21T07:59:29.160Z,32.42
2019-01-21T08:02:16.510Z,29.10
2019-01-21T08:05:07.404Z,29.75
2019-01-21T08:07:41.945Z,28.40
2019-01-21T08:10:31.280Z,27.45
2019-01-21T08:13:21.039Z,27.90
2019-01-21T08:16:26.331Z,27.27
2019-01-21T08:19:04.148Z,23.15
2019-01-21T08:21:52.255Z,24.75
2019-01-21T08:24:30.640Z,25.68
2019-01-21T08:27:12.075Z,25.35
2019-01-21T08:30:02.751Z,25.37
2019-01-21T08:32:56.204Z,24.75
2019-01-21T08:35:37.713Z,23.07
2019-01-21T08:38:12.781Z,26.90
2019-01-21T08:41:00.472Z,25.45
2019-01-21T08:43:50.910Z,24.40
2019-01-21T08:46:31.596Z,25.72
2019-01-21T08:49:21.531Z,22.60
2019-01-21T08:51:56.287Z,27.17
2019-01-21T08:54:30.984Z,24.52
2019-01-21T08:57:11.582Z,26.33
2019-01-21T08:59:52.638Z,27.00
2019-01-21T09:02:24.832Z,27.62
2019-01-21T09:05:18.902Z,25.05
2019-01-21T09:08:24.651Z,29.35
2019-01-21T09:11:19.664Z,31.25
2019-01-21T09:13:51.938Z,32.13
2019-01-21T09:16:23.993Z,28.40
2019-01-21T09:18:56.287Z,29.35
2019-01-21T09:21:31.064Z,26.90
2019-01-21T09:24:21.502Z,27.50
2019-01-21T09:27:10.121Z,28.62
2019-01-21T09:30:03.302Z,29.37
2019-01-21T09:32:47.639Z,29.75
2019-01-21T09:35:22.648Z,27.65
2019-01-21T09:38:11.547Z,27.32
2019-01-21T09:40:52.600Z,26.15
2019-01-21T09:43:27.251Z,25.68
2019-01-21T09:45:59.249Z,26.37
2019-01-21T09:48:27.569Z,24.72
2019-01-21T09:50:59.705Z,27.52
2019-01-21T09:53:29.489Z,24.18
2019-01-21T09:55:59.890Z,23.95
2019-01-21T09:58:31.286Z,24.12
2019-01-21T10:01:01.088Z,19.73
2019-01-21T10:03:31.090Z,20.60
2019-01-21T10:06:07.155Z,21.97
2019-01-21T10:08:39.191Z,24.07
2019-01-21T10:11:23.703Z,22.90
2019-01-21T10:14:24.719Z,20.80
2019-01-21T10:16:59.579Z,21.23
2019-01-21T10:19:31.549Z,21.35
2019-01-21T10:22:06.424Z,18.75
2019-01-21T10:24:50.484Z,21.35
2019-01-21T10:27:34.680Z,17.70
2019-01-21T10:30:21.425Z,19.90
2019-01-21T10:33:05.334Z,20.65
2019-01-21T10:36:09.474Z,21.77
2019-01-21T10:38:41.523Z,21.70
2019-01-21T10:41:13.912Z,23.30
2019-01-21T10:44:07.352Z,24.07
2019-01-21T10:46:45.770Z,23.60
2019-01-21T10:49:35.655Z,22.32
2019-01-21T10:52:16.959Z,24.70
2019-01-21T10:55:01.898Z,22.67
2019-01-21T10:57:49.418Z,21.40
2019-01-21T11:00:39.263Z,23.27
2019-01-21T11:03:14.443Z,20.90
2019-01-21T11:06:11.613Z,21.52
2019-01-21T11:09:11.229Z,22.52
2019-01-21T11:11:54.098Z,25.50
2019-01-21T11:14:40.825Z,23.47
2019-01-21T11:17:25.179Z,23.55
2019-01-21T11:20:04.208Z,19.17
2019-01-21T11:22:36.242Z,23.62
2019-01-21T11:25:28.960Z,22.90
2019-01-21T11:28:06.469Z,22.75
2019-01-21T11:30:50.500Z,26.70
2019-01-21T11:33:32.444Z,24.00
2019-01-21T11:36:11.314Z,25.57
2019-01-21T11:38:46.004Z,22.22
2019-01-21T11:41:27.209Z,23.70
2019-01-21T11:44:20.669Z,22.02
2019-01-21T11:47:04.930Z,21.95
2019-01-21T11:49:43.028Z,22.02
2019-01-21T11:52:26.663Z,20.55
2019-01-21T11:55:01.860Z,29.10
2019-01-21T11:57:46.112Z,24.77
2019-01-21T12:00:51.689Z,23.70
2019-01-21T12:03:26.528Z,24.47
2019-01-21T12:05:58.162Z,24.92
2019-01-21T12:09:00.735Z,22.85
2019-01-21T12:11:36.178Z,33.98
2019-01-21T12:14:20.218Z,34.03
2019-01-21T12:17:02.833Z,30.23
2019-01-21T12:20:00.919Z,27.02
2019-01-21T12:22:52.746Z,27.13
2019-01-21T12:25:40.557Z,25.97
2019-01-21T12:28:37.204Z,29.92
2019-01-21T12:31:09.307Z,50.70
2019-01-21T12:34:05.885Z,56.35
2019-01-21T12:36:37.705Z,84.28
2019-01-21T12:39:27.191Z,70.03
2019-01-21T12:42:33.285Z,71.22
2019-01-21T12:45:20.315Z,137.70
2019-01-21T12:47:58.571Z,90.97
2019-01-21T12:50:50.213Z,67.62
2019-01-21T12:53:34.199Z,56.45
2019-01-21T12:56:35.051Z,57.43
2019-01-21T12:59:16.068Z,57.88
2019-01-21T13:01:48.450Z,53.48
2019-01-21T13:04:29.550Z,57.50
2019-01-21T13:07:05.002Z,45.45
2019-01-21T13:09:53.376Z,33.60
2019-01-21T13:12:33.936Z,30.55
2019-01-21T13:15:26.848Z,30.77
2019-01-21T13:18:25.483Z,42.78
2019-01-21T13:21:25.446Z,33.38
2019-01-21T13:23:57.323Z,59.88
2019-01-21T13:26:38.523Z,42.03
2019-01-21T13:29:13.463Z,50.45
2019-01-21T13:31:54.554Z,46.08
2019-01-21T13:34:35.740Z,43.65
2019-01-21T13:37:14.304Z,42.85
2019-01-21T13:39:46.297Z,41.77
2019-01-21T13:42:18.045Z,41.50
2019-01-21T13:45:11.550Z,42.88
2019-01-21T13:47:56.075Z,36.60
2019-01-21T13:50:36.890Z,43.63
2019-01-21T13:53:37.773Z,38.20
2019-01-21T13:56:15.717Z,32.17
2019-01-21T13:59:06.172Z,36.55
2019-01-21T14:01:43.909Z,37.23
2019-01-21T14:04:41.149Z,37.83
2019-01-21T14:07:25.915Z,40.88
2019-01-21T14:10:32.424Z,38.55
2019-01-21T14:13:26.555Z,47.35
2019-01-21T14:16:07.183Z,34.03
2019-01-21T14:18:56.035Z,32.55
2019-01-21T14:21:52.497Z,30.57
2019-01-21T14:24:47.549Z,31.97
2019-01-21T14:27:46.143Z,32.55
2019-01-21T14:30:48.948Z,29.02
2019-01-21T14:33:30.155Z,32.28
2019-01-21T14:36:20.213Z,26.65
2019-01-21T14:39:10.119Z,29.72
2019-01-21T14:41:51.173Z,37.30
2019-01-21T14:44:42.489Z,38.67
2019-01-21T14:47:20.249Z,35.17
2019-01-21T14:50:16.258Z,34.50
2019-01-21T14:53:03.253Z,40.52
2019-01-21T14:56:00.814Z,42.78
2019-01-21T14:58:32.703Z,31.02
2019-01-21T15:01:28.896Z,30.82
2019-01-21T15:04:06.595Z,34.35
2019-01-21T15:06:50.380Z,35.65
2019-01-21T15:09:40.674Z,34.73
2019-01-21T15:12:16.195Z,33.40
2019-01-21T15:14:51.137Z,31.50
2019-01-21T15:17:47.440Z,33.73
2019-01-21T15:20:19.496Z,29.63
2019-01-21T15:22:57.315Z,34.08
2019-01-21T15:25:35.874Z,30.20
2019-01-21T15:28:39.547Z,30.45
2019-01-21T15:31:40.479Z,29.00
2019-01-21T15:34:25.017Z,29.10
2019-01-21T15:37:11.579Z,29.85
2019-01-21T15:39:52.412Z,29.98
2019-01-21T15:42:30.470Z,30.92
2019-01-21T15:45:18.402Z,27.45
2019-01-21T15:48:09.420Z,24.07
2019-01-21T15:50:50.407Z,24.20
2019-01-21T15:53:31.502Z,26.95
2019-01-21T15:56:16.027Z,23.42
2019-01-21T15:58:56.976Z,25.82
2019-01-21T16:01:29.451Z,26.60
2019-01-21T16:04:04.047Z,26.90
2019-01-21T16:06:42.022Z,27.70
2019-01-21T16:09:24.486Z,26.95
2019-01-21T16:12:15.319Z,30.75
2019-01-21T16:14:49.874Z,37.88
2019-01-21T16:17:34.715Z,36.15
2019-01-21T16:20:05.633Z,36.00
2019-01-21T16:22:46.712Z,28.50
2019-01-21T16:25:18.764Z,30.05
2019-01-21T16:28:19.512Z,33.53
2019-01-21T16:30:51.520Z,31.02
2019-01-21T16:33:26.930Z,33.67
2019-01-21T16:36:13.976Z,36.73
2019-01-21T16:38:45.503Z,37.40
2019-01-21T16:41:32.223Z,31.77
2019-01-21T16:44:01.187Z,32.73
2019-01-21T16:46:30.529Z,34.45
2019-01-21T16:48:59.929Z,35.50
2019-01-21T16:51:28.983Z,42.50
2019-01-21T16:53:58.108Z,42.45
2019-01-21T16:56:27.629Z,39.63
2019-01-21T16:58:56.164Z,33.30
2019-01-21T17:01:24.762Z,44.88
2019-01-21T17:03:53.314Z,40.58
2019-01-21T17:06:22.144Z,33.23
2019-01-21T17:08:51.311Z,30.85
2019-01-21T17:11:20.594Z,30.30
2019-01-21T17:13:49.932Z,29.02
2019-01-21T17:16:19.911Z,25.95
2019-01-21T17:18:48.948Z,24.72
2019-01-21T17:21:18.143Z,27.00
2019-01-21T17:23:47.447Z,22.55
2019-01-21T17:26:16.768Z,24.30
2019-01-21T17:28:46.028Z,24.27
2019-01-21T17:31:19.423Z,18.65
2019-01-21T17:33:48.533Z,20.40
2019-01-21T17:36:17.891Z,18.70
2019-01-21T17:38:47.235Z,20.23
2019-01-21T17:41:16.529Z,17.30
2019-01-21T17:43:46.119Z,18.65
2019-01-21T17:46:15.252Z,18.82
2019-01-21T17:48:44.648Z,17.07
2019-01-21T17:51:14.027Z,14.85
2019-01-21T17:53:43.733Z,15.60
2019-01-21T17:56:13.141Z,16.32
2019-01-21T17:58:42.428Z,16.50
2019-01-21T18:01:12.012Z,14.80
2019-01-21T18:03:41.246Z,15.05
2019-01-21T18:06:11.814Z,13.60
2019-01-21T18:08:41.888Z,15.70
2019-01-21T18:11:11.165Z,23.62
2019-01-21T18:13:40.402Z,16.20
2019-01-21T18:16:10.016Z,14.63
2019-01-21T18:18:39.860Z,13.58
2019-01-21T18:21:09.112Z,11.68
2019-01-21T18:23:38.640Z,12.55
2019-01-21T18:26:08.208Z,12.78
2019-01-21T18:28:36.926Z,12.80
2019-01-21T18:31:05.578Z,13.10
2019-01-21T18:33:34.222Z,13.60
2019-01-21T18:36:02.738Z,19.80
2019-01-21T18:38:31.780Z,15.37
2019-01-21T18:41:01.305Z,16.20
2019-01-21T18:43:30.794Z,13.67
2019-01-21T18:45:59.943Z,13.60
2019-01-21T18:48:29.269Z,12.87
2019-01-21T18:50:58.736Z,12.00
2019-01-21T18:53:28.407Z,14.18
2019-01-21T18:55:57.470Z,12.60
2019-01-21T18:58:26.576Z,10.80
2019-01-21T19:00:56.577Z,10.57
2019-01-21T19:03:25.763Z,11.90
2019-01-21T19:05:55.244Z,12.27
2019-01-21T19:08:25.096Z,12.80
2019-01-21T19:10:54.772Z,11.30
2019-01-21T19:13:23.977Z,14.70
2019-01-21T19:15:52.665Z,21.53
2019-01-21T19:18:22.275Z,17.37
2019-01-21T19:20:51.013Z,13.73
2019-01-21T19:23:20.168Z,13.80
2019-01-21T19:25:49.072Z,12.97
2019-01-21T19:28:18.217Z,19.10
2019-01-21T19:30:47.572Z,23.00
2019-01-21T19:33:17.189Z,11.00
2019-01-21T19:35:47.065Z,9.90
2019-01-21T19:38:15.969Z,9.63
2019-01-21T19:40:44.974Z,10.50
2019-01-21T19:43:15.932Z,9.90
2019-01-21T19:45:45.040Z,10.30
2019-01-21T19:48:14.326Z,11.87
2019-01-21T19:50:43.728Z,11.47
2019-01-21T19:53:13.061Z,9.30
2019-01-21T19:55:42.536Z,14.00
2019-01-21T19:58:12.020Z,10.47
2019-01-21T20:00:40.994Z,9.67
2019-01-21T20:03:10.112Z,7.50
2019-01-21T20:05:39.213Z,8.40
2019-01-21T20:08:08.543Z,9.07
2019-01-21T20:10:37.850Z,8.30
2019-01-21T20:13:07.300Z,9.37
2019-01-21T20:15:36.558Z,11.83
2019-01-21T20:18:06.028Z,10.33
2019-01-21T20:20:37.979Z,8.90
2019-01-21T20:23:07.095Z,10.43
2019-01-21T20:25:36.186Z,10.00
2019-01-21T20:28:05.162Z,9.23
2019-01-21T20:30:34.273Z,10.93
2019-01-21T20:33:03.312Z,9.90
2019-01-21T20:35:32.653Z,10.57
2019-01-21T20:38:01.928Z,10.63
2019-01-21T20:40:30.848Z,11.30
2019-01-21T20:43:00.088Z,11.40
2019-01-21T20:45:30.338Z,11.67
2019-01-21T20:47:59.460Z,10.33
2019-01-21T20:50:35.115Z,9.50
2019-01-21T20:53:04.725Z,12.80
2019-01-21T20:55:34.688Z,10.00
2019-01-21T20:58:03.718Z,11.07
2019-01-21T21:00:32.761Z,11.10
2019-01-21T21:03:02.505Z,10.57
2019-01-21T21:05:32.244Z,8.33
2019-01-21T21:08:02.016Z,8.27
2019-01-21T21:10:31.617Z,7.60
2019-01-21T21:13:01.152Z,6.87
2019-01-21T21:15:32.441Z,6.97
2019-01-21T21:18:01.783Z,7.13
2019-01-21T21:20:31.241Z,8.30
2019-01-21T21:23:00.134Z,7.33
2019-01-21T21:25:29.952Z,8.23
2019-01-21T21:27:58.986Z,6.70
2019-01-21T21:30:29.825Z,6.33
2019-01-21T21:32:58.704Z,6.57
2019-01-21T21:35:28.417Z,7.57
2019-01-21T21:37:58.365Z,7.03
2019-01-21T21:40:28.342Z,6.77
2019-01-21T21:42:57.878Z,8.30
2019-01-21T21:45:28.028Z,6.47
2019-01-21T21:48:01.164Z,7.20
2019-01-21T21:50:32.049Z,6.33
2019-01-21T21:53:02.740Z,6.10
2019-01-21T21:55:32.331Z,6.20
2019-01-21T21:58:03.360Z,5.90
2019-01-21T22:00:33.578Z,6.50
2019-01-21T22:03:04.171Z,6.27
2019-01-21T22:05:33.507Z,6.30
2019-01-21T22:08:02.924Z,5.90
2019-01-21T22:10:32.841Z,5.43
2019-01-21T22:13:02.568Z,4.90
2019-01-21T22:15:31.547Z,6.00
2019-01-21T22:18:00.472Z,5.03
2019-01-21T22:20:29.858Z,6.53
2019-01-21T22:22:59.751Z,8.67
2019-01-21T22:25:29.461Z,5.90
2019-01-21T22:27:59.012Z,7.50
2019-01-21T22:30:28.296Z,6.73
2019-01-21T22:32:58.312Z,6.90
2019-01-21T22:35:28.528Z,7.20
2019-01-21T22:37:57.897Z,6.60
2019-01-21T22:40:27.012Z,11.70
2019-01-21T22:42:56.356Z,10.97
2019-01-21T22:45:25.599Z,8.40
2019-01-21T22:47:54.783Z,12.00
2019-01-21T22:50:24.088Z,7.97
2019-01-21T22:52:53.384Z,7.90
2019-01-21T22:55:23.014Z,6.50
2019-01-21T22:57:52.338Z,6.40
2019-01-21T23:00:31.361Z,7.00
2019-01-21T23:03:00.763Z,7.30
2019-01-21T23:05:30.240Z,8.30
2019-01-21T23:07:59.554Z,8.00
2019-01-21T23:10:28.746Z,8.27
2019-01-21T23:12:59.014Z,9.00
2019-01-21T23:15:28.274Z,7.87
2019-01-21T23:17:57.838Z,14.00
2019-01-21T23:20:26.999Z,11.60
2019-01-21T23:22:56.256Z,9.40
2019-01-21T23:25:26.452Z,7.63
2019-01-21T23:27:55.836Z,9.93
2019-01-21T23:30:25.393Z,10.47
2019-01-21T23:32:54.876Z,9.03
2019-01-21T23:35:25.302Z,9.85
2019-01-21T23:37:54.259Z,8.13
2019-01-21T23:40:23.223Z,7.87
2019-01-21T23:42:51.883Z,8.35
2019-01-21T23:45:20.598Z,8.67
2019-01-21T23:47:50.214Z,8.40
2019-01-21T23:50:19.344Z,8.07
2019-01-21T23:52:48.663Z,8.17
2019-01-21T23:55:17.631Z,8.90
2019-01-21T23:57:46.358Z,8.85
